الصفحة الرئيسية
METAR-TAF:

METAR-TAF

مطار :

أورينبورغ, روسيا

دائرة عرض: 51-46-48N, خط طول: 055-07-12E, ارتفاع: 109 متر

مراقبة الطقس الحالي

تاريخ ووقت الإصدار 27 دقيقة قبل الساعة 14:30UTC
ريح 10 عقدة من الشرق/الجنوب الشرقي, الاتجاه يتراوح بين الشرق/الشمال الشرقي و الجنوب/الجنوب الشرقي
درجة الحرارة 23°درجة مئوية
الرطوبة 65%
ضغط 1000 hPa
الرؤية 10 كم أو أكثر
غيوم مفككة على ارتفاع 4000 قدم, مزنة ركامية.

METAR: UWOO 241430Z 12005MPS 060V160 9999 BKN040CB 23/16 Q1000 R08/CLRD60 NOSIG RMK QFE740/0986

زمن: 19:57 (14:57 UTC)

توقعات

تاريخ ووقت الإصدار 1ساعة و 9 دقيقة قبل الساعة 13:48UTC
التوقعات صالحة من24 الساعة 15 UTC إلى 25 الساعة 15 UTC
ريح 6 عقدة من الشرق/الجنوب الشرقي تتزايد حتى 19 عقدة
الرؤية: 6000 متر
غيوم متفرقة على ارتفاع 1600 قدم
مؤقت
من 24 الساعة 15 UTC إلى 25 الساعة 15 UTC
ريح 10 عقدة من الشرق تتزايد حتى 33 عقدة
الرؤية: 2000 متر
غيوم مفككة على ارتفاع 1000 قدم, مزنة ركامية.
عاصفة رعدية, مطر,

TAF: UWOO 241348Z 2415/2515 11003G10MPS 6000 SCT016 TX20/2510Z TN15/2501Z TEMPO 2415/2515 09005G17MPS 2000 TSRA BKN010CB

أرصاد الطقس والتوقعات من أكثر من 4000 مطار (تقارير الطقس للمطار METAR والتنبؤ بالطقس بالمطارTAF).

المحطات المتاحة هي النقط الصفراء والحمراء على الخريطة.

حرك المؤشر فوق النقطة لمعرفة اسم المحطة.

ثم انقر لمعرفة أرصاد وتوقعات الطقس.

لتغيير الخارطة: اضغط على الأزرار الخضراء مع رمز الصليب الأسود للتكبير. على الزر الأخضر مع شرطة للتصغير، أو على الأسهم الخضراء للخرائط المجاورة.


METAR-TAF: